createdAt,value
2022-08-25T00:01:08.651Z,20.00
2022-08-25T00:03:35.885Z,20.22
2022-08-25T00:06:07.001Z,20.09
2022-08-25T00:08:35.106Z,20.33
2022-08-25T00:11:03.495Z,20.20
2022-08-25T00:13:30.359Z,20.06
2022-08-25T00:15:57.621Z,20.21
2022-08-25T00:18:24.386Z,20.00
2022-08-25T00:20:51.509Z,20.18
2022-08-25T00:23:19.693Z,20.13
2022-08-25T00:25:46.294Z,20.18
2022-08-25T00:28:13.982Z,20.06
2022-08-25T00:30:40.702Z,20.12
2022-08-25T00:33:07.284Z,19.95
2022-08-25T00:35:33.807Z,19.93
2022-08-25T00:38:00.445Z,19.88
2022-08-25T00:40:28.594Z,19.98
2022-08-25T00:42:56.252Z,20.00
2022-08-25T00:45:23.805Z,19.69
2022-08-25T00:47:50.462Z,19.95
2022-08-25T00:50:17.349Z,20.00
2022-08-25T00:52:48.077Z,20.01
2022-08-25T00:55:21.284Z,19.82
2022-08-25T00:58:19.967Z,19.94
2022-08-25T01:00:50.306Z,19.98
2022-08-25T01:03:19.199Z,19.81
2022-08-25T01:09:47.850Z,19.99
2022-08-25T01:12:14.682Z,19.80
2022-08-25T01:14:42.488Z,19.65
2022-08-25T01:17:09.575Z,19.62
2022-08-25T01:19:36.219Z,19.72
2022-08-25T01:22:02.927Z,19.95
2022-08-25T01:24:38.803Z,19.80
2022-08-25T01:27:06.446Z,19.72
2022-08-25T01:29:33.473Z,19.77
2022-08-25T01:32:07.011Z,19.87
2022-08-25T01:34:36.594Z,19.87
2022-08-25T01:37:04.146Z,19.95
2022-08-25T01:39:33.950Z,19.91
2022-08-25T01:42:09.524Z,19.79
2022-08-25T01:44:40.202Z,19.81
2022-08-25T01:47:08.008Z,19.81
2022-08-25T01:49:35.641Z,19.70
2022-08-25T01:52:25.555Z,19.67
2022-08-25T01:54:52.116Z,19.64
2022-08-25T01:57:18.636Z,19.58
2022-08-25T01:59:45.217Z,19.64
2022-08-25T02:02:12.054Z,19.75
2022-08-25T02:04:39.484Z,19.61
2022-08-25T02:07:08.960Z,19.57
2022-08-25T02:09:37.488Z,19.72
2022-08-25T02:12:04.544Z,19.80
2022-08-25T02:14:31.045Z,19.80
2022-08-25T02:16:57.719Z,19.76
2022-08-25T02:19:26.104Z,19.63
2022-08-25T02:21:53.532Z,19.62
2022-08-25T02:24:20.249Z,19.61
2022-08-25T02:26:46.802Z,19.56
2022-08-25T02:29:13.653Z,19.57
2022-08-25T02:31:40.409Z,19.52
2022-08-25T02:34:08.730Z,19.55
2022-08-25T02:36:36.027Z,19.62
2022-08-25T02:39:04.082Z,19.59
2022-08-25T02:41:31.827Z,19.44
2022-08-25T02:44:00.136Z,19.37
2022-08-25T02:46:27.664Z,19.49
2022-08-25T02:48:55.291Z,19.41
2022-08-25T02:51:23.739Z,19.44
2022-08-25T02:53:50.460Z,19.47
2022-08-25T02:56:18.747Z,19.58
2022-08-25T02:58:46.366Z,19.48
2022-08-25T03:01:13.743Z,19.39
2022-08-25T03:03:43.574Z,19.39
2022-08-25T03:06:12.674Z,19.37
2022-08-25T03:08:39.624Z,19.35
2022-08-25T03:11:07.005Z,19.31
2022-08-25T03:13:33.859Z,19.22
2022-08-25T03:16:01.218Z,19.17
2022-08-25T03:18:30.222Z,19.28
2022-08-25T03:20:57.755Z,19.23
2022-08-25T03:23:24.646Z,19.29
2022-08-25T03:26:09.522Z,19.17
2022-08-25T03:28:36.476Z,19.18
2022-08-25T03:31:03.232Z,19.14
2022-08-25T03:33:31.044Z,19.21
2022-08-25T03:35:59.092Z,19.19
2022-08-25T03:38:26.964Z,19.10
2022-08-25T03:40:54.037Z,19.13
2022-08-25T03:43:21.273Z,19.14
2022-08-25T03:45:48.015Z,19.10
2022-08-25T03:48:16.142Z,18.98
2022-08-25T03:50:51.738Z,18.86
2022-08-25T03:53:19.838Z,18.93
2022-08-25T03:55:46.586Z,18.82
2022-08-25T03:58:13.216Z,18.94
2022-08-25T04:00:39.899Z,18.99
2022-08-25T04:03:06.738Z,19.01
2022-08-25T04:05:33.654Z,19.00
2022-08-25T04:08:01.907Z,19.06
2022-08-25T04:10:29.381Z,19.05
2022-08-25T04:12:56.164Z,19.07
2022-08-25T04:15:22.742Z,19.04
2022-08-25T04:17:50.534Z,19.04
2022-08-25T04:20:19.045Z,18.86
2022-08-25T04:22:45.555Z,18.93
2022-08-25T04:25:12.886Z,18.94
2022-08-25T04:27:39.496Z,18.88
2022-08-25T04:30:06.967Z,18.98
2022-08-25T04:32:36.279Z,18.96
2022-08-25T04:35:05.156Z,18.92
2022-08-25T04:37:31.708Z,18.97
2022-08-25T04:39:58.272Z,18.93
2022-08-25T04:42:26.926Z,18.94
2022-08-25T04:44:54.374Z,18.73
2022-08-25T04:47:20.916Z,18.80
2022-08-25T04:49:47.826Z,18.78
2022-08-25T04:52:14.750Z,18.73
2022-08-25T04:54:42.159Z,18.85
2022-08-25T04:57:08.697Z,18.75
2022-08-25T04:59:35.291Z,19.01
2022-08-25T05:02:03.335Z,19.04
2022-08-25T05:04:30.934Z,19.04
2022-08-25T05:06:58.043Z,19.12
2022-08-25T05:09:25.803Z,19.20
2022-08-25T05:11:53.733Z,19.25
2022-08-25T05:14:22.192Z,19.14
2022-08-25T05:16:53.881Z,19.12
2022-08-25T05:19:20.397Z,18.99
2022-08-25T05:21:47.143Z,19.10
2022-08-25T05:24:13.626Z,19.07
2022-08-25T05:26:40.161Z,18.96
2022-08-25T05:29:07.163Z,19.04
2022-08-25T05:31:36.404Z,19.03
2022-08-25T05:34:07.853Z,19.16
2022-08-25T05:36:34.887Z,18.91
2022-08-25T05:39:01.736Z,19.00
2022-08-25T05:41:30.436Z,18.91
2022-08-25T05:43:57.846Z,18.79
2022-08-25T05:46:25.333Z,18.66
2022-08-25T05:48:52.174Z,18.64
2022-08-25T05:51:19.867Z,18.74
2022-08-25T05:53:48.475Z,18.84
2022-08-25T05:56:15.466Z,18.80
2022-08-25T05:58:43.361Z,18.88
2022-08-25T06:01:36.674Z,18.83
2022-08-25T06:04:03.463Z,18.79
2022-08-25T06:06:30.048Z,18.74
2022-08-25T06:08:56.675Z,18.61
2022-08-25T06:11:23.515Z,18.57
2022-08-25T06:13:50.047Z,18.65
2022-08-25T06:16:16.617Z,18.74
2022-08-25T06:18:43.245Z,18.86
2022-08-25T06:21:12.796Z,18.61
2022-08-25T06:23:39.859Z,18.77
2022-08-25T06:26:09.639Z,18.82
2022-08-25T06:28:39.650Z,18.75
2022-08-25T06:31:06.526Z,18.89
2022-08-25T06:33:33.093Z,18.99
2022-08-25T06:35:59.948Z,19.30
2022-08-25T06:38:27.245Z,19.19
2022-08-25T06:40:54.220Z,19.24
2022-08-25T06:43:21.897Z,19.15
2022-08-25T06:45:48.647Z,18.93
2022-08-25T06:48:15.910Z,18.93
2022-08-25T06:50:43.303Z,18.95
2022-08-25T06:53:10.400Z,18.84
2022-08-25T06:55:37.138Z,18.93
2022-08-25T06:58:04.965Z,19.07
2022-08-25T07:00:32.465Z,19.20
2022-08-25T07:03:01.400Z,18.71
2022-08-25T07:05:40.797Z,18.56
2022-08-25T07:08:11.692Z,18.89
2022-08-25T07:10:38.352Z,18.89
2022-08-25T07:13:04.825Z,18.87
2022-08-25T07:15:31.357Z,19.05
2022-08-25T07:17:58.096Z,19.18
2022-08-25T07:22:56.074Z,19.22
2022-08-25T07:25:24.114Z,19.08
2022-08-25T07:27:50.659Z,19.24
2022-08-25T07:30:17.475Z,19.42
2022-08-25T07:32:43.947Z,19.38
2022-08-25T07:35:19.011Z,19.39
2022-08-25T07:38:06.638Z,19.24
2022-08-25T07:40:37.598Z,19.33
2022-08-25T07:43:09.531Z,19.52
2022-08-25T07:45:42.110Z,19.53
2022-08-25T07:48:17.771Z,19.75
2022-08-25T07:50:45.662Z,19.61
2022-08-25T07:53:13.965Z,19.68
2022-08-25T07:55:41.773Z,19.66
2022-08-25T07:58:12.335Z,20.11
2022-08-25T08:00:40.502Z,20.49
2022-08-25T08:03:12.931Z,20.23
2022-08-25T08:05:50.548Z,20.72
2022-08-25T08:08:17.218Z,20.28
2022-08-25T08:11:03.301Z,19.61
2022-08-25T08:13:31.853Z,19.85
2022-08-25T08:15:58.460Z,19.60
2022-08-25T08:18:24.992Z,19.65
2022-08-25T08:20:51.466Z,20.03
2022-08-25T08:23:18.174Z,20.07
2022-08-25T08:25:44.638Z,20.46
2022-08-25T08:28:11.816Z,20.48
2022-08-25T08:30:38.434Z,20.62
2022-08-25T08:33:10.034Z,20.37
2022-08-25T08:35:38.186Z,20.76
2022-08-25T08:38:08.962Z,20.27
2022-08-25T08:41:26.317Z,20.43
2022-08-25T08:46:49.232Z,20.86
2022-08-25T08:49:46.674Z,21.08
2022-08-25T08:52:17.178Z,21.07
2022-08-25T08:54:49.609Z,21.36
2022-08-25T08:57:19.625Z,21.45
2022-08-25T08:59:54.146Z,21.44
2022-08-25T09:02:39.438Z,21.64
2022-08-25T09:05:20.561Z,21.35
2022-08-25T09:07:56.070Z,21.47
2022-08-25T09:10:26.087Z,21.86
2022-08-25T09:13:17.116Z,21.64
2022-08-25T09:16:23.337Z,21.27
2022-08-25T09:19:23.637Z,21.08
2022-08-25T09:22:35.164Z,21.32
2022-08-25T09:25:29.606Z,21.67
2022-08-25T09:28:28.219Z,22.63
2022-08-25T09:31:00.457Z,23.29
2022-08-25T09:33:31.461Z,23.82
2022-08-25T09:36:01.879Z,24.15
2022-08-25T09:38:32.504Z,24.76
2022-08-25T09:41:01.032Z,24.66
2022-08-25T09:43:28.204Z,24.71
2022-08-25T09:46:08.745Z,24.61
2022-08-25T09:48:44.797Z,25.47
2022-08-25T09:51:23.906Z,25.76
2022-08-25T09:54:13.719Z,26.17
2022-08-25T09:56:56.205Z,25.94
2022-08-25T09:59:34.347Z,25.30
2022-08-25T10:02:25.114Z,23.93
2022-08-25T10:04:52.823Z,24.18
2022-08-25T10:07:34.599Z,24.60
2022-08-25T10:10:07.650Z,24.16
2022-08-25T10:12:44.114Z,23.41
2022-08-25T10:15:29.365Z,23.48
2022-08-25T10:18:16.036Z,24.54
2022-08-25T10:20:44.712Z,24.99
2022-08-25T10:23:14.069Z,25.50
2022-08-25T10:25:59.294Z,24.86
2022-08-25T10:28:41.525Z,24.57
2022-08-25T10:31:35.838Z,25.24
2022-08-25T10:34:31.361Z,25.57
2022-08-25T10:37:20.659Z,25.44
2022-08-25T10:39:55.529Z,25.24
2022-08-25T10:42:45.802Z,25.51
2022-08-25T10:45:37.944Z,24.94
2022-08-25T10:48:18.521Z,25.02
2022-08-25T10:51:25.553Z,24.73
2022-08-25T10:54:02.227Z,24.38
2022-08-25T10:56:34.954Z,23.68
2022-08-25T10:59:07.215Z,23.76
2022-08-25T11:02:06.638Z,23.66
2022-08-25T11:04:59.558Z,24.06
2022-08-25T11:07:33.562Z,24.12
2022-08-25T11:10:15.185Z,24.16
2022-08-25T11:12:50.126Z,24.94
2022-08-25T11:15:24.120Z,24.39
2022-08-25T11:18:05.270Z,24.53
2022-08-25T11:21:13.137Z,24.71
2022-08-25T11:23:48.088Z,24.17
2022-08-25T11:26:20.750Z,24.43
2022-08-25T11:29:04.198Z,23.95
2022-08-25T11:31:31.156Z,24.01
2022-08-25T11:33:58.885Z,24.41
2022-08-25T11:36:33.071Z,24.78
2022-08-25T11:38:59.740Z,25.48
2022-08-25T11:41:58.083Z,24.70
2022-08-25T11:44:53.022Z,24.53
2022-08-25T11:47:58.903Z,23.75
2022-08-25T11:50:33.130Z,24.89
2022-08-25T11:53:37.891Z,25.47
2022-08-25T11:56:31.543Z,26.24
2022-08-25T11:58:59.435Z,26.95
2022-08-25T12:01:32.481Z,27.89
2022-08-25T12:04:33.706Z,26.22
2022-08-25T12:07:22.658Z,24.94
2022-08-25T12:10:10.654Z,24.37
2022-08-25T12:12:59.351Z,24.05
2022-08-25T12:15:25.879Z,24.41
2022-08-25T12:18:21.960Z,24.27
2022-08-25T12:20:57.525Z,24.17
2022-08-25T12:23:35.158Z,23.96
2022-08-25T12:26:28.878Z,24.24
2022-08-25T12:28:58.893Z,24.16
2022-08-25T12:31:43.034Z,24.62
2022-08-25T12:34:38.608Z,24.95
2022-08-25T12:37:13.279Z,24.71
2022-08-25T12:39:52.397Z,23.93
2022-08-25T12:42:25.324Z,24.15
2022-08-25T12:45:20.160Z,24.06
2022-08-25T12:47:48.643Z,24.13
2022-08-25T12:50:32.359Z,24.34
2022-08-25T12:53:24.481Z,24.25
2022-08-25T12:56:02.735Z,24.80
2022-08-25T12:58:59.918Z,24.81
2022-08-25T13:01:41.956Z,24.21
2022-08-25T13:04:17.132Z,24.37
2022-08-25T13:07:02.244Z,24.35
2022-08-25T13:09:49.276Z,24.05
2022-08-25T13:12:25.846Z,24.37
2022-08-25T13:14:55.330Z,24.58
2022-08-25T13:17:37.951Z,24.13
2022-08-25T13:20:29.261Z,24.44
2022-08-25T13:22:59.369Z,24.83
2022-08-25T13:25:32.322Z,24.78
2022-08-25T13:28:03.209Z,24.76
2022-08-25T13:30:33.091Z,24.66
2022-08-25T13:33:00.304Z,24.71
2022-08-25T13:35:32.779Z,24.35
2022-08-25T13:38:13.700Z,24.34
2022-08-25T13:40:40.887Z,24.68
2022-08-25T13:43:12.537Z,24.43
2022-08-25T13:45:43.531Z,24.37
2022-08-25T13:48:22.529Z,24.68
2022-08-25T13:50:52.063Z,24.67
2022-08-25T13:53:25.443Z,24.73
2022-08-25T13:55:57.159Z,24.48
2022-08-25T13:58:39.421Z,24.39
2022-08-25T14:01:23.142Z,24.64
2022-08-25T14:04:22.459Z,24.35
2022-08-25T14:06:49.572Z,24.27
2022-08-25T14:09:18.441Z,24.47
2022-08-25T14:11:58.511Z,24.56
2022-08-25T14:14:24.910Z,24.50
2022-08-25T14:16:58.923Z,24.45
2022-08-25T14:19:26.258Z,24.52
2022-08-25T14:21:56.552Z,24.31
2022-08-25T14:24:23.859Z,24.07
2022-08-25T14:26:54.642Z,24.36
2022-08-25T14:29:22.298Z,24.63
2022-08-25T14:31:50.009Z,24.54
2022-08-25T14:34:32.799Z,24.72
2022-08-25T14:37:02.102Z,24.80
2022-08-25T14:39:29.270Z,24.74
2022-08-25T14:41:56.144Z,24.65
2022-08-25T14:44:22.734Z,24.55
2022-08-25T14:46:54.230Z,25.21
2022-08-25T14:49:29.677Z,24.97
2022-08-25T14:52:08.265Z,24.95
2022-08-25T14:54:37.581Z,25.33
2022-08-25T14:57:04.370Z,24.77
2022-08-25T14:59:35.016Z,24.85
2022-08-25T15:02:01.863Z,24.64
2022-08-25T15:04:30.081Z,24.63
2022-08-25T15:07:01.689Z,24.58
2022-08-25T15:09:33.742Z,24.60
2022-08-25T15:12:00.425Z,24.62
2022-08-25T15:14:29.228Z,24.78
2022-08-25T15:17:01.673Z,24.47
2022-08-25T15:19:29.042Z,24.56
2022-08-25T15:21:57.828Z,24.50
2022-08-25T15:24:27.690Z,24.36
2022-08-25T15:27:00.281Z,24.49
2022-08-25T15:29:30.115Z,24.67
2022-08-25T15:31:57.954Z,24.33
2022-08-25T15:34:24.454Z,24.53
2022-08-25T15:36:51.307Z,24.23
2022-08-25T15:39:19.201Z,24.36
2022-08-25T15:41:52.483Z,24.51
2022-08-25T15:44:19.776Z,24.65
2022-08-25T15:46:47.155Z,25.02
2022-08-25T15:49:16.209Z,24.43
2022-08-25T15:51:50.299Z,24.44
2022-08-25T15:54:17.063Z,24.56
2022-08-25T15:56:44.361Z,24.36
2022-08-25T15:59:13.410Z,24.38
2022-08-25T16:01:41.320Z,24.36
2022-08-25T16:04:07.920Z,24.22
2022-08-25T16:06:34.473Z,24.31
2022-08-25T16:09:01.379Z,24.34
2022-08-25T16:11:30.861Z,24.23
2022-08-25T16:13:57.758Z,24.35
2022-08-25T16:16:26.740Z,24.33
2022-08-25T16:18:54.043Z,24.30
2022-08-25T16:21:25.678Z,24.34
2022-08-25T16:23:58.507Z,24.32
2022-08-25T16:26:25.862Z,24.31
2022-08-25T16:28:52.945Z,24.36
2022-08-25T16:31:20.613Z,24.55
2022-08-25T16:33:48.204Z,24.48
2022-08-25T16:36:21.527Z,24.48
2022-08-25T16:38:49.532Z,24.55
2022-08-25T16:41:22.964Z,24.58
2022-08-25T16:43:50.390Z,24.52
2022-08-25T16:46:19.567Z,24.41
2022-08-25T16:48:46.977Z,24.51
2022-08-25T16:51:16.219Z,24.46
2022-08-25T16:54:04.983Z,24.50
2022-08-25T16:56:35.027Z,24.31
2022-08-25T16:59:03.368Z,24.32
2022-08-25T17:01:34.056Z,24.25
2022-08-25T17:04:01.272Z,24.18
2022-08-25T17:06:29.648Z,24.12
2022-08-25T17:08:56.236Z,24.14
2022-08-25T17:11:26.849Z,24.25
2022-08-25T17:13:56.922Z,24.08
2022-08-25T17:16:27.934Z,24.24
2022-08-25T17:18:55.293Z,24.11
2022-08-25T17:21:24.255Z,24.15
2022-08-25T17:23:52.575Z,24.15
2022-08-25T17:26:19.819Z,24.07
2022-08-25T17:28:54.163Z,23.87
2022-08-25T17:31:21.161Z,24.04
2022-08-25T17:33:48.062Z,23.69
2022-08-25T17:36:17.325Z,23.92
2022-08-25T17:38:45.003Z,24.00
2022-08-25T17:41:14.596Z,24.12
2022-08-25T17:43:43.632Z,24.01
2022-08-25T17:46:11.773Z,23.87
2022-08-25T17:48:43.860Z,24.05
2022-08-25T17:51:11.088Z,23.92
2022-08-25T17:53:38.470Z,24.02
2022-08-25T17:56:11.617Z,23.88
2022-08-25T17:58:38.241Z,24.05
2022-08-25T18:01:05.673Z,23.92
2022-08-25T18:03:33.012Z,23.82
2022-08-25T18:06:00.356Z,23.77
2022-08-25T18:08:32.016Z,23.65
2022-08-25T18:11:02.168Z,23.68
2022-08-25T18:13:29.344Z,23.74
2022-08-25T18:15:55.842Z,23.71
2022-08-25T18:18:24.208Z,23.73
2022-08-25T18:20:50.986Z,23.81
2022-08-25T18:23:19.501Z,23.85
2022-08-25T18:25:48.582Z,23.84
2022-08-25T18:28:15.463Z,23.85
2022-08-25T18:30:42.448Z,23.71
2022-08-25T18:33:09.738Z,23.79
2022-08-25T18:35:36.275Z,23.79
2022-08-25T18:38:23.712Z,23.78
2022-08-25T18:40:57.956Z,23.56
2022-08-25T18:43:24.907Z,23.73
2022-08-25T18:45:51.493Z,23.69
2022-08-25T18:48:20.505Z,23.69
2022-08-25T18:50:50.547Z,23.63
2022-08-25T18:53:19.221Z,23.79
2022-08-25T18:55:58.074Z,23.76
2022-08-25T18:58:26.230Z,23.81
2022-08-25T19:00:52.713Z,23.78
2022-08-25T19:03:22.314Z,23.78
2022-08-25T19:05:55.037Z,23.69
2022-08-25T19:08:24.675Z,23.70
2022-08-25T19:10:53.515Z,23.68
2022-08-25T19:13:22.661Z,23.61
2022-08-25T19:15:51.702Z,23.52
2022-08-25T19:18:25.941Z,23.67
2022-08-25T19:20:56.127Z,23.68
2022-08-25T19:23:22.588Z,23.68
2022-08-25T19:25:49.120Z,23.62
2022-08-25T19:28:17.229Z,23.60
2022-08-25T19:30:50.355Z,23.61
2022-08-25T19:33:42.180Z,23.55
2022-08-25T19:36:06.397Z,23.47
2022-08-25T19:38:37.523Z,23.48
2022-08-25T19:41:09.381Z,23.48
2022-08-25T19:43:54.962Z,23.53
2022-08-25T19:46:28.945Z,23.48
2022-08-25T19:49:09.193Z,23.50
2022-08-25T19:51:45.657Z,23.44
2022-08-25T19:54:15.308Z,23.46
2022-08-25T19:56:43.508Z,23.42
2022-08-25T19:59:10.961Z,23.23
2022-08-25T20:01:37.533Z,23.27
2022-08-25T20:04:06.920Z,23.27
2022-08-25T20:06:33.473Z,23.32
2022-08-25T20:09:00.640Z,23.30
2022-08-25T20:11:29.089Z,23.18
2022-08-25T20:14:00.372Z,23.23
2022-08-25T20:16:30.180Z,23.26
2022-08-25T20:18:56.720Z,23.27
2022-08-25T20:21:24.000Z,23.24
2022-08-25T20:24:09.312Z,23.22
2022-08-25T20:26:36.610Z,23.19
2022-08-25T20:29:04.989Z,23.20
2022-08-25T20:31:32.505Z,23.19
2022-08-25T20:34:02.887Z,23.15
2022-08-25T20:36:30.018Z,23.13
2022-08-25T20:38:59.143Z,23.07
2022-08-25T20:41:26.048Z,22.96
2022-08-25T20:43:52.600Z,22.99
2022-08-25T20:46:19.285Z,23.00
2022-08-25T20:48:45.939Z,22.90
2022-08-25T20:51:13.183Z,22.85
2022-08-25T20:53:42.402Z,22.85
2022-08-25T20:56:14.703Z,22.84
2022-08-25T20:58:42.545Z,22.85
2022-08-25T21:01:23.077Z,22.87
2022-08-25T21:03:50.479Z,22.84
2022-08-25T21:06:17.404Z,22.82
2022-08-25T21:08:46.557Z,22.74
2022-08-25T21:11:15.620Z,22.65
2022-08-25T21:13:42.076Z,22.67
2022-08-25T21:16:09.208Z,22.70
2022-08-25T21:18:36.569Z,22.68
2022-08-25T21:21:12.263Z,22.67
2022-08-25T21:23:39.502Z,22.64
2022-08-25T21:26:06.771Z,22.56
2022-08-25T21:28:34.573Z,22.54
2022-08-25T21:31:02.062Z,22.57
2022-08-25T21:33:28.733Z,22.47
2022-08-25T21:35:55.994Z,22.43
2022-08-25T21:38:22.508Z,22.51
2022-08-25T21:40:49.245Z,22.45
2022-08-25T21:43:16.200Z,22.41
2022-08-25T21:45:46.862Z,22.44
2022-08-25T21:48:14.072Z,22.37
2022-08-25T21:50:41.095Z,22.39
2022-08-25T21:53:09.700Z,22.32
2022-08-25T21:55:41.907Z,22.32
2022-08-25T21:58:08.845Z,22.40
2022-08-25T22:00:35.967Z,22.42
2022-08-25T22:03:02.855Z,22.49
2022-08-25T22:05:29.366Z,22.37
2022-08-25T22:07:55.894Z,22.37
2022-08-25T22:10:22.673Z,22.21
2022-08-25T22:12:49.840Z,22.25
2022-08-25T22:15:17.899Z,22.24
2022-08-25T22:17:45.484Z,22.35
2022-08-25T22:20:16.689Z,22.29
2022-08-25T22:22:43.208Z,22.30
2022-08-25T22:25:10.306Z,22.29
2022-08-25T22:27:37.340Z,22.23
2022-08-25T22:30:05.651Z,22.31
2022-08-25T22:32:32.227Z,22.29
2022-08-25T22:34:58.771Z,22.36
2022-08-25T22:37:25.591Z,22.33
2022-08-25T22:39:52.267Z,22.30
2022-08-25T22:42:19.048Z,22.41
2022-08-25T22:44:53.827Z,22.38
2022-08-25T22:47:20.695Z,22.31
2022-08-25T22:49:47.192Z,22.34
2022-08-25T22:52:14.397Z,22.16
2022-08-25T22:54:41.797Z,22.30
2022-08-25T22:57:08.353Z,22.20
2022-08-25T22:59:34.874Z,22.27
2022-08-25T23:02:01.587Z,22.23
2022-08-25T23:04:28.226Z,22.25
2022-08-25T23:06:55.131Z,22.13
2022-08-25T23:09:21.948Z,22.30
2022-08-25T23:11:51.304Z,22.23
2022-08-25T23:14:18.450Z,22.15
2022-08-25T23:16:45.098Z,22.23
2022-08-25T23:19:13.745Z,22.21
2022-08-25T23:22:00.117Z,22.30
2022-08-25T23:24:29.682Z,22.23
2022-08-25T23:27:01.312Z,22.21
2022-08-25T23:29:28.690Z,22.24
2022-08-25T23:31:56.610Z,22.28
2022-08-25T23:34:24.761Z,22.19
2022-08-25T23:36:51.646Z,22.21
2022-08-25T23:39:18.332Z,22.25
2022-08-25T23:41:44.990Z,22.13
2022-08-25T23:44:17.429Z,22.16
2022-08-25T23:46:44.923Z,22.05
2022-08-25T23:49:11.957Z,22.13
2022-08-25T23:51:38.629Z,22.16
2022-08-25T23:54:09.652Z,22.01
2022-08-25T23:56:42.367Z,22.05
2022-08-25T23:59:13.015Z,21.99
